Главная страница
METAR-TAF:

METAR-TAF

Аэропорты :

Belmar / Farmingdale, Нью-Джерси, США

широта: 40-11N, долгота: 074-08W, высота над уровнем моря: 48 м

Текущие метеонаблюдения

Эта сводка был подготовлена 33 минут назад, в 14:56 UTC
Ветер 4 Узел от западный-юго-западный
Температура 7°C
Влажность 42%
Давление 1025 hPa
Видимость: 16.1 км
Сплошная облачность на высоте 5000 фута

METAR: KBLM 151456Z AUTO 25004KT 10SM OVC050 07/M05 A3027 RMK AO2 SLP251 T00721050 58002

Время: 10:29 (15:29 UTC)


TAF: отсутствует

Метеонаблюдения и прогнозы для более 4000 аэропортов (сводки METAR и TAF).

Имеющиеся станции представлены на карте желтыми и красными точками.

Чтобы увидеть название станции, наведите на нее мышь.

Затем щелкните, чтобы увидеть метеонаблюдения и метеопрогнозы.

Управление картой: чтобы увеличить масштаб, щелкните зеленые кнопки с черным крестиком; чтобы уменьшить масштаб, щелкните зеленую кнопку с тире; для просмотра соседних карт щелкайте зеленые стрелки.


METAR-TAF: